Time;durP1;ratioP1;P1;durP2;ratioP2;P2;SDS_P1;SDS_P2;PMS_P1;PMS_P2;Temp;Humidity;BMP_temperature;BMP_pressure;BME280_temperature;BME280_humidity;BME280_pressure;Samples;Min_cycle;Max_cycle;Signal;HPM_P1;HPM_P2
2022/07/14 00:00:45;;;;;;;2.20;1.63;;;;;;;21.42;53.65;99702.06;5072472;28;20589;-53
2022/07/14 00:03:12;;;;;;;2.03;1.70;;;;;;;21.49;53.45;99695.38;5071836;28;20199;-54
2022/07/14 00:05:40;;;;;;;1.65;1.55;;;;;;;21.46;53.25;99700.88;5071839;28;20219;-54
2022/07/14 00:08:07;;;;;;;2.08;1.65;;;;;;;21.44;53.46;99702.81;5071956;28;20227;-54
2022/07/14 00:10:34;;;;;;;1.70;1.60;;;;;;;21.41;53.46;99697.72;5071870;28;20206;-54
2022/07/14 00:13:01;;;;;;;3.00;1.80;;;;;;;21.42;53.34;99701.22;5071925;28;20283;-54
2022/07/14 00:15:29;;;;;;;1.55;1.48;;;;;;;21.39;53.06;99704.91;5071220;28;20198;-54
2022/07/14 00:17:58;;;;;;;2.30;1.42;;;;;;;21.35;53.24;99703.44;5069772;28;20196;-54
2022/07/14 00:20:25;;;;;;;1.63;1.52;;;;;;;21.37;53.12;99699.72;5072327;28;20611;-60
2022/07/14 00:22:55;;;;;;;2.80;1.42;;;;;;;21.37;52.62;99707.66;5071827;28;20196;-53
2022/07/14 00:25:22;;;;;;;2.45;1.60;;;;;;;21.37;52.80;99705.00;5071640;28;20223;-53
2022/07/14 00:27:49;;;;;;;1.60;1.50;;;;;;;21.46;52.65;99705.31;5071153;28;20210;-53
2022/07/14 00:30:16;;;;;;;1.67;1.58;;;;;;;21.44;52.59;99713.38;5071387;28;20269;-53
2022/07/14 00:32:43;;;;;;;5.80;1.70;;;;;;;21.41;52.76;99699.53;5071451;28;20202;-53
2022/07/14 00:35:10;;;;;;;1.77;1.67;;;;;;;21.50;52.43;99704.16;5071452;28;20585;-53
2022/07/14 00:37:37;;;;;;;2.10;1.58;;;;;;;21.43;52.55;99698.47;5071624;28;20672;-54
2022/07/14 00:40:08;;;;;;;1.33;1.33;;;;;;;21.46;52.31;99694.75;5071198;28;20196;-54
2022/07/14 00:42:37;;;;;;;3.05;1.50;;;;;;;21.45;52.72;99699.19;5071202;28;20202;-53
2022/07/14 00:45:05;;;;;;;3.83;1.40;;;;;;;21.43;52.61;99702.91;5070959;28;20246;-60
2022/07/14 00:47:33;;;;;;;2.80;1.55;;;;;;;21.33;52.63;99692.97;5071521;28;20555;-59
2022/07/14 00:50:00;;;;;;;1.40;1.30;;;;;;;21.37;53.08;99705.00;5071428;28;20202;-59
2022/07/14 00:52:29;;;;;;;1.75;1.65;;;;;;;21.37;52.89;99690.97;5071304;28;20200;-59
2022/07/14 00:54:56;;;;;;;1.40;1.30;;;;;;;21.36;52.93;99689.28;5071289;28;20280;-59
2022/07/14 00:57:25;;;;;;;1.50;1.40;;;;;;;21.29;53.29;99691.50;5071014;28;20586;-60
2022/07/14 00:59:53;;;;;;;1.60;1.50;;;;;;;21.30;53.40;99705.56;5071018;28;20199;-53
2022/07/14 01:02:20;;;;;;;3.92;1.40;;;;;;;21.28;53.59;99703.03;5070764;28;20302;-53
2022/07/14 01:04:48;;;;;;;1.77;1.65;;;;;;;21.31;53.38;99707.25;5070690;28;20230;-53
2022/07/14 01:07:16;;;;;;;1.77;1.67;;;;;;;21.30;53.71;99705.56;5070516;28;20196;-53
2022/07/14 01:09:44;;;;;;;2.13;1.70;;;;;;;21.28;53.78;99704.81;5070812;28;20655;-54
2022/07/14 01:12:12;;;;;;;1.33;1.33;;;;;;;21.21;54.06;99696.50;5070616;28;20698;-58
2022/07/14 01:14:41;;;;;;;1.83;1.73;;;;;;;21.19;54.04;99694.91;5070867;28;20295;-59
2022/07/14 01:17:09;;;;;;;1.55;1.50;;;;;;;21.20;54.25;99702.72;5070635;28;20210;-59
2022/07/14 01:19:37;;;;;;;3.60;1.50;;;;;;;21.19;54.53;99698.38;5070712;28;20274;-59
2022/07/14 01:22:05;;;;;;;1.58;1.48;;;;;;;21.08;54.66;99698.25;5070448;28;20664;-53
2022/07/14 01:24:33;;;;;;;1.88;1.58;;;;;;;21.01;54.89;99699.63;5070332;28;20198;-53
2022/07/14 01:27:00;;;;;;;1.55;1.42;;;;;;;20.99;54.97;99698.91;5070842;28;20195;-59
2022/07/14 01:29:27;;;;;;;3.85;1.48;;;;;;;21.02;55.03;99698.66;5070513;28;20206;-58
2022/07/14 01:31:55;;;;;;;3.95;1.70;;;;;;;21.01;54.88;99700.47;5070275;28;20196;-59
2022/07/14 01:34:21;;;;;;;6.22;1.85;;;;;;;21.01;54.92;99697.81;5070090;28;20204;-58
2022/07/14 01:36:49;;;;;;;3.17;1.60;;;;;;;21.00;54.76;99690.00;5070157;28;20894;-58
2022/07/14 01:39:18;;;;;;;1.70;1.60;;;;;;;20.94;54.58;99682.53;5070029;28;20207;-58
2022/07/14 01:41:46;;;;;;;1.55;1.45;;;;;;;21.07;54.60;99698.34;5070336;28;20257;-53
2022/07/14 01:44:13;;;;;;;1.70;1.60;;;;;;;21.04;54.80;99696.78;5070092;28;20203;-53
2022/07/14 01:46:40;;;;;;;1.58;1.33;;;;;;;21.08;54.55;99702.69;5069926;28;20212;-59
2022/07/14 01:49:08;;;;;;;1.60;1.50;;;;;;;21.09;54.46;99696.47;5070009;28;20199;-59
2022/07/14 01:51:35;;;;;;;1.85;1.63;;;;;;;21.14;54.25;99694.34;5070025;28;20661;-60
2022/07/14 01:54:04;;;;;;;1.90;1.80;;;;;;;21.12;54.43;99698.88;5070272;28;20641;-59
2022/07/14 01:56:32;;;;;;;3.55;1.73;;;;;;;21.16;54.01;99701.22;5070036;28;20200;-59
2022/07/14 01:59:00;;;;;;;4.72;1.90;;;;;;;21.13;54.13;99701.41;5069880;28;20249;-59
2022/07/14 02:01:44;;;;;;;2.10;1.58;;;;;;;21.12;54.19;99697.06;5069731;28;20196;-60
2022/07/14 02:04:12;;;;;;;1.77;1.67;;;;;;;21.14;54.14;99704.91;5069625;28;20242;-59
2022/07/14 02:06:42;;;;;;;2.08;1.60;;;;;;;21.23;53.93;99701.63;5069550;28;20223;-59
2022/07/14 02:09:09;;;;;;;3.15;1.60;;;;;;;21.22;53.93;99706.06;5069365;28;20234;-54
2022/07/14 02:14:22;;;;;;;3.22;1.50;;;;;;;21.23;53.74;99704.28;5069707;28;20202;-54
2022/07/14 02:16:49;;;;;;;2.20;2.03;;;;;;;21.23;53.89;99702.50;5069586;28;20202;-60
2022/07/14 02:19:16;;;;;;;2.60;1.75;;;;;;;21.21;54.20;99703.56;5069837;28;20727;-59
2022/07/14 02:21:44;;;;;;;1.95;1.75;;;;;;;21.11;53.91;99694.53;5069799;28;20564;-59
2022/07/14 02:24:11;;;;;;;2.42;2.33;;;;;;;21.24;53.69;99705.97;5069588;28;20253;-59
2022/07/14 02:26:40;;;;;;;4.90;2.63;;;;;;;21.28;53.74;99708.31;5069614;28;20253;-59
2022/07/14 02:29:07;;;;;;;4.05;3.30;;;;;;;21.27;53.61;99721.59;5069536;28;20196;-59
2022/07/14 02:31:35;;;;;;;3.80;3.17;;;;;;;21.23;53.66;99701.63;5070123;28;20556;-59
2022/07/14 02:34:03;;;;;;;2.95;2.80;;;;;;;21.28;53.30;99718.03;5070080;28;20196;-59
2022/07/14 02:36:30;;;;;;;2.58;2.38;;;;;;;21.24;53.74;99722.66;5069217;28;20284;-60
2022/07/14 02:38:57;;;;;;;2.70;2.47;;;;;;;21.28;53.70;99718.88;5067780;28;20196;-59
2022/07/14 02:41:24;;;;;;;2.92;2.33;;;;;;;21.26;53.64;99719.91;5068146;28;20702;-59
2022/07/14 02:43:53;;;;;;;2.17;1.92;;;;;;;21.21;53.85;99719.41;5067879;28;20199;-53
2022/07/14 02:46:20;;;;;;;3.47;2.00;;;;;;;21.23;53.75;99717.47;5068081;28;20207;-53
2022/07/14 02:48:47;;;;;;;2.50;2.10;;;;;;;21.21;53.71;99716.78;5067936;28;20200;-53
2022/07/14 02:51:15;;;;;;;1.95;1.85;;;;;;;21.14;53.84;99715.44;5065586;28;20196;-53
2022/07/14 02:53:42;;;;;;;1.85;1.75;;;;;;;21.16;53.58;99724.13;5068211;28;20647;-53
2022/07/14 02:56:09;;;;;;;2.00;1.70;;;;;;;21.17;53.41;99721.38;5067773;28;20190;-59
2022/07/14 02:58:36;;;;;;;2.20;1.92;;;;;;;21.17;53.38;99724.00;5067880;28;20198;-59
2022/07/14 03:01:07;;;;;;;2.47;2.00;;;;;;;21.16;53.39;99726.75;5068221;28;20676;-59
2022/07/14 03:03:34;;;;;;;2.53;2.20;;;;;;;21.16;53.69;99721.47;5065529;28;20194;-59
2022/07/14 03:06:07;;;;;;;1.63;1.58;;;;;;;21.12;53.79;99728.75;5067932;28;20212;-59
2022/07/14 03:08:34;;;;;;;2.10;1.60;;;;;;;21.06;53.94;99723.06;5065333;28;20227;-59
2022/07/14 03:11:01;;;;;;;5.13;1.75;;;;;;;21.14;53.97;99731.28;5067886;28;20195;-53
2022/07/14 03:13:28;;;;;;;1.90;1.80;;;;;;;21.20;53.94;99731.75;5067936;28;20204;-53
2022/07/14 03:15:55;;;;;;;2.35;1.98;;;;;;;21.15;53.90;99731.19;5067907;28;20184;-53
2022/07/14 03:18:24;;;;;;;2.03;1.90;;;;;;;21.17;53.87;99736.38;5067667;28;20192;-53
2022/07/14 03:20:51;;;;;;;2.65;1.67;;;;;;;21.22;53.62;99732.47;5067587;28;20329;-53
2022/07/14 03:23:18;;;;;;;3.58;1.77;;;;;;;21.14;53.96;99734.78;5065919;28;20700;-59
2022/07/14 03:25:45;;;;;;;3.22;1.95;;;;;;;21.14;54.07;99732.13;5064525;28;20220;-60
2022/07/14 03:28:13;;;;;;;3.30;2.20;;;;;;;21.08;53.72;99705.34;5070500;28;20192;-60
2022/07/14 03:30:40;;;;;;;4.70;2.90;;;;;;;21.24;53.59;99725.28;5067909;28;20200;-58
2022/07/14 03:33:07;;;;;;;3.38;2.42;;;;;;;21.28;53.69;99733.84;5070212;28;20192;-55
2022/07/14 03:35:39;;;;;;;3.15;2.50;;;;;;;21.35;53.40;99735.97;5070662;28;20702;-60
2022/07/14 03:38:06;;;;;;;5.30;2.40;;;;;;;21.43;52.92;99730.16;5069943;28;20195;-55
2022/07/14 03:40:34;;;;;;;3.08;2.38;;;;;;;21.49;52.88;99736.78;5067777;28;20589;-55
2022/07/14 03:43:01;;;;;;;3.00;2.45;;;;;;;21.64;52.57;99736.56;5070263;28;20223;-60
2022/07/14 03:45:28;;;;;;;4.57;2.10;;;;;;;;;;5069907;28;20220;-60
2022/07/14 03:47:55;;;;;;;2.42;2.20;;;;;;;21.79;52.14;99728.47;5068642;28;20195;-54
2022/07/14 03:50:22;;;;;;;3.08;2.20;;;;;;;21.82;51.95;99726.47;5069586;28;20579;-54
2022/07/14 03:52:50;;;;;;;4.00;2.50;;;;;;;21.90;51.75;99732.03;5068123;28;20211;-60
2022/07/14 03:55:18;;;;;;;4.45;2.45;;;;;;;22.07;51.47;99729.06;5069840;28;20210;-61
2022/07/14 03:57:45;;;;;;;3.20;2.72;;;;;;;22.64;49.86;99716.94;5069951;28;20196;-62
2022/07/14 04:00:12;;;;;;;4.43;2.50;;;;;;;24.53;45.65;99742.59;5066589;28;20231;-61
2022/07/14 04:02:39;;;;;;;2.28;2.17;;;;;;;26.21;41.18;99729.72;5068470;28;20196;-62
2022/07/14 04:05:07;;;;;;;3.60;2.15;;;;;;;28.13;37.27;99749.78;5067041;28;20204;-62
2022/07/14 04:07:34;;;;;;;4.25;2.00;;;;;;;29.43;34.41;99752.78;5065192;28;20242;-61
2022/07/14 04:10:02;;;;;;;2.40;2.13;;;;;;;30.49;32.95;99753.97;5065853;28;20584;-62
2022/07/14 04:12:29;;;;;;;3.40;2.00;;;;;;;31.88;30.48;99755.50;5068631;28;20386;-62
2022/07/14 04:14:56;;;;;;;2.15;2.00;;;;;;;33.22;29.16;99766.66;5067524;28;20200;-61
2022/07/14 04:17:23;;;;;;;2.58;2.17;;;;;;;34.29;27.44;99770.69;5067745;28;20196;-62
2022/07/14 04:19:49;;;;;;;3.85;2.40;;;;;;;35.04;26.42;99768.28;5070348;28;20227;-62
2022/07/14 04:22:16;;;;;;;6.07;3.13;;;;;;;35.68;25.77;99773.50;5070182;28;20200;-62
2022/07/14 04:24:43;;;;;;;5.05;2.75;;;;;;;36.47;24.68;99779.25;5071002;28;20204;-62
2022/07/14 04:27:12;;;;;;;2.85;2.65;;;;;;;36.29;24.64;99779.00;5071377;28;20228;-62
2022/07/14 04:29:38;;;;;;;2.70;2.40;;;;;;;37.49;23.35;99773.47;5071395;28;20202;-62
2022/07/14 04:32:07;;;;;;;4.10;2.55;;;;;;;38.46;22.30;99780.63;5070863;28;20196;-59
2022/07/14 04:34:34;;;;;;;2.20;1.95;;;;;;;38.57;22.25;99788.09;5071177;28;20219;-62
2022/07/14 04:37:01;;;;;;;1.95;1.50;;;;;;;38.76;22.09;99795.25;5070132;28;20196;-63
2022/07/14 04:39:28;;;;;;;3.88;2.17;;;;;;;37.51;23.37;99790.34;5070442;28;20584;-63
2022/07/14 04:41:55;;;;;;;8.15;2.30;;;;;;;37.86;22.76;99796.31;5070327;28;20202;-61
2022/07/14 04:44:23;;;;;;;4.45;2.58;;;;;;;38.71;22.05;99799.69;5070238;28;20621;-55
2022/07/14 04:46:50;;;;;;;5.80;2.67;;;;;;;38.57;21.95;99790.81;5070010;28;20222;-53
2022/07/14 04:52:05;;;;;;;5.25;2.50;;;;;;;40.25;21.23;99795.00;5069790;28;20603;-60
2022/07/14 04:54:33;;;;;;;8.27;3.92;;;;;;;41.47;20.08;99803.56;5070491;28;20199;-53
2022/07/14 04:57:01;;;;;;;4.55;2.00;;;;;;;42.08;19.60;99813.13;5070170;28;20206;-60
2022/07/14 04:59:29;;;;;;;7.47;2.47;;;;;;;42.93;18.46;99821.28;5070974;28;20239;-60
2022/07/14 05:01:57;;;;;;;5.57;2.38;;;;;;;42.71;18.68;99812.97;5071042;28;20681;-60
2022/07/14 05:04:24;;;;;;;3.15;2.67;;;;;;;41.93;19.68;99807.31;5070918;28;20585;-61
2022/07/14 05:06:51;;;;;;;6.72;2.58;;;;;;;40.91;19.98;99806.84;5070635;28;20234;-60
2022/07/14 05:09:18;;;;;;;4.43;1.90;;;;;;;41.40;19.42;99812.94;5070500;28;20601;-60
2022/07/14 05:11:46;;;;;;;4.45;2.60;;;;;;;41.83;19.24;99818.84;5070504;28;20191;-60
2022/07/14 05:14:13;;;;;;;3.92;2.20;;;;;;;42.34;18.82;99820.72;5070410;28;20318;-60
2022/07/14 05:16:44;;;;;;;4.18;2.30;;;;;;;42.97;18.42;99821.63;5069995;28;20192;-52
2022/07/14 05:19:11;;;;;;;6.07;2.30;;;;;;;43.35;18.35;99827.16;5069694;28;20191;-53
2022/07/14 05:21:38;;;;;;;4.55;2.63;;;;;;;42.77;17.69;99830.31;5070631;28;20199;-53
2022/07/14 05:24:05;;;;;;;7.53;2.47;;;;;;;41.59;19.19;99820.78;5070510;28;20278;-53
2022/07/14 05:26:32;;;;;;;3.28;2.20;;;;;;;41.51;19.33;99834.75;5070198;28;20220;-53
2022/07/14 05:28:59;;;;;;;4.97;1.95;;;;;;;42.03;18.89;99837.56;5070213;28;20238;-53
2022/07/14 05:31:26;;;;;;;3.33;1.90;;;;;;;41.82;18.32;99840.91;5070346;28;20202;-53
2022/07/14 05:33:55;;;;;;;2.63;2.10;;;;;;;40.65;19.54;99827.09;5069547;28;20199;-60
2022/07/14 05:36:22;;;;;;;3.00;2.25;;;;;;;41.07;19.16;99841.56;5070188;28;20192;-61
2022/07/14 05:38:50;;;;;;;3.15;2.13;;;;;;;41.00;19.39;99838.09;5070003;28;20206;-61
2022/07/14 05:41:17;;;;;;;5.05;4.65;;;;;;;41.61;18.67;99836.91;5070418;28;20594;-60
2022/07/14 05:43:44;;;;;;;5.88;3.95;;;;;;;41.42;18.72;99836.19;5070489;28;20210;-53
2022/07/14 05:46:11;;;;;;;2.92;2.17;;;;;;;41.28;18.86;99840.19;5068830;28;20223;-53
2022/07/14 05:48:38;;;;;;;3.35;2.75;;;;;;;41.17;19.05;99836.41;5069160;28;20207;-53
2022/07/14 05:51:11;;;;;;;6.07;2.20;;;;;;;40.90;19.54;99838.69;5069929;28;20195;-53
2022/07/14 05:53:38;;;;;;;4.72;2.78;;;;;;;40.21;19.90;99836.47;5069957;28;20195;-53
2022/07/14 05:56:07;;;;;;;4.50;2.10;;;;;;;39.90;20.87;99837.50;5069837;28;20196;-53
2022/07/14 05:58:35;;;;;;;3.08;2.63;;;;;;;39.80;20.13;99829.03;5070048;28;20249;-53
2022/07/14 06:01:02;;;;;;;4.97;1.98;;;;;;;39.62;20.47;99839.88;5069650;28;20191;-52
2022/07/14 06:03:30;;;;;;;6.47;3.30;;;;;;;39.97;19.92;99832.81;5069868;28;20217;-53
2022/07/14 06:05:59;;;;;;;3.47;2.88;;;;;;;40.21;19.89;99833.78;5069586;28;20586;-52
2022/07/14 06:08:28;;;;;;;4.80;2.92;;;;;;;40.31;19.93;99841.41;5069307;28;20235;-53
2022/07/14 06:10:55;;;;;;;5.20;3.33;;;;;;;40.25;20.62;99841.25;5069816;28;20214;-52
2022/07/14 06:13:23;;;;;;;4.78;3.45;;;;;;;40.09;20.01;99841.88;5068691;28;20191;-53
2022/07/14 06:15:50;;;;;;;5.50;3.08;;;;;;;39.70;20.72;99847.75;5068694;28;20200;-52
2022/07/14 06:18:18;;;;;;;5.00;4.60;;;;;;;39.42;20.50;99832.75;5068945;28;20191;-53
2022/07/14 06:20:45;;;;;;;3.85;2.65;;;;;;;39.62;20.13;99839.88;5069044;28;20201;-59
2022/07/14 06:23:12;;;;;;;4.30;3.78;;;;;;;39.26;20.73;99829.75;5069855;28;20195;-59
2022/07/14 06:25:40;;;;;;;4.63;2.17;;;;;;;39.15;21.11;99829.44;5069580;28;20200;-60
2022/07/14 06:28:08;;;;;;;3.30;1.95;;;;;;;37.60;21.74;99813.44;5069363;28;20257;-60
2022/07/14 06:30:36;;;;;;;2.15;1.95;;;;;;;37.40;22.86;99818.91;5069213;28;20582;-61
2022/07/14 06:33:03;;;;;;;3.53;2.40;;;;;;;36.49;23.23;99809.63;5069308;28;20615;-61
2022/07/14 06:35:30;;;;;;;4.90;2.70;;;;;;;36.50;23.48;99815.88;5069702;28;20633;-61
2022/07/14 06:37:57;;;;;;;2.38;2.17;;;;;;;36.83;23.62;99815.97;5069473;28;20582;-61
2022/07/14 06:40:24;;;;;;;3.25;1.77;;;;;;;37.50;22.48;99804.09;5069654;28;20253;-60
2022/07/14 06:42:52;;;;;;;2.08;1.92;;;;;;;37.51;23.11;99809.28;5069427;28;20287;-61
2022/07/14 06:45:19;;;;;;;8.13;2.25;;;;;;;37.73;22.25;99812.63;5069332;28;20196;-61
2022/07/14 06:47:46;;;;;;;3.08;1.80;;;;;;;37.24;22.88;99813.94;5069035;28;20220;-60
2022/07/14 06:50:13;;;;;;;3.63;1.65;;;;;;;36.32;23.94;99806.50;5069317;28;20199;-60
2022/07/14 06:52:40;;;;;;;2.00;1.80;;;;;;;36.21;24.07;99806.22;5069325;28;20221;-62
2022/07/14 06:55:08;;;;;;;6.88;2.13;;;;;;;36.25;24.26;99797.50;5069099;28;20200;-61
2022/07/14 06:57:35;;;;;;;6.18;2.20;;;;;;;36.23;24.15;99798.78;5069306;28;20188;-61
2022/07/14 07:00:07;;;;;;;8.35;1.90;;;;;;;35.57;24.95;99790.28;5072328;28;20196;-61
2022/07/14 07:02:35;;;;;;;3.78;2.35;;;;;;;34.70;25.84;99790.59;5073302;28;20654;-61
2022/07/14 07:07:47;;;;;;;6.57;2.15;;;;;;;34.80;26.14;99785.72;5072804;28;20254;-53
2022/07/14 07:10:14;;;;;;;8.77;5.07;;;;;;;35.08;25.29;99785.78;5073043;28;20200;-54
2022/07/14 07:12:41;;;;;;;7.28;2.15;;;;;;;35.41;26.96;99782.50;5072941;28;20199;-54
2022/07/14 07:15:10;;;;;;;2.42;1.92;;;;;;;35.41;24.54;99788.75;5072773;28;20223;-55
2022/07/14 07:17:37;;;;;;;7.45;3.92;;;;;;;35.83;25.66;99787.75;5072895;28;20214;-54
2022/07/14 07:20:05;;;;;;;12.75;4.32;;;;;;;36.55;23.70;99786.38;5072658;28;20192;-54
2022/07/14 07:22:32;;;;;;;3.65;2.80;;;;;;;37.13;23.73;99795.59;5073330;28;20202;-54
2022/07/14 07:24:58;;;;;;;8.57;2.97;;;;;;;37.40;22.94;99786.41;5072970;28;20287;-55
2022/07/14 07:27:26;;;;;;;3.63;2.20;;;;;;;37.26;23.11;99783.91;5072466;28;20216;-60
2022/07/14 07:29:53;;;;;;;2.25;1.75;;;;;;;37.18;23.51;99779.56;5072825;28;20210;-60
2022/07/14 07:32:22;;;;;;;3.95;1.83;;;;;;;36.92;23.38;99772.25;5072895;28;20196;-60
2022/07/14 07:34:49;;;;;;;4.45;3.17;;;;;;;37.07;23.26;99780.16;5072753;28;20656;-60
2022/07/14 07:37:16;;;;;;;14.88;5.45;;;;;;;37.21;23.30;99787.28;5072804;28;20196;-61
2022/07/14 07:39:42;;;;;;;1.92;1.83;;;;;;;36.66;23.58;99778.47;5072647;28;20206;-60
2022/07/14 07:42:10;;;;;;;5.65;2.67;;;;;;;37.21;23.00;99776.44;5072441;28;20199;-60
2022/07/14 07:44:37;;;;;;;3.35;2.05;;;;;;;37.51;23.59;99775.97;5072502;28;20277;-60
2022/07/14 07:47:04;;;;;;;2.47;1.63;;;;;;;37.81;22.19;99777.19;5072342;28;20224;-60
2022/07/14 07:49:33;;;;;;;5.90;4.35;;;;;;;38.25;21.75;99770.94;5072544;28;20647;-61
2022/07/14 07:52:00;;;;;;;2.45;1.80;;;;;;;38.38;22.52;99773.56;5072385;28;20206;-61
2022/07/14 07:54:28;;;;;;;2.40;1.52;;;;;;;38.34;21.52;99774.22;5072165;28;20206;-60
2022/07/14 07:56:55;;;;;;;2.45;1.70;;;;;;;38.25;21.47;99776.38;5072297;28;20191;-60
2022/07/14 07:59:22;;;;;;;4.53;2.10;;;;;;;38.31;21.54;99769.22;5072307;28;20199;-60
2022/07/14 08:01:49;;;;;;;1.60;1.50;;;;;;;38.61;21.03;99767.59;5072213;28;20191;-60
2022/07/14 08:04:16;;;;;;;2.72;1.73;;;;;;;37.75;21.48;99764.47;5072314;28;20277;-58
2022/07/14 08:06:45;;;;;;;2.25;1.25;;;;;;;37.06;21.49;99756.84;5072172;28;20227;-60
2022/07/14 08:09:12;;;;;;;3.13;1.90;;;;;;;37.13;22.05;99759.56;5071910;28;20231;-60
2022/07/14 08:11:41;;;;;;;3.58;2.10;;;;;;;37.95;21.72;99762.50;5071152;28;20191;-54
2022/07/14 08:14:47;;;;;;;2.90;1.88;;;;;;;38.88;21.30;99751.94;5071888;28;20604;-54
2022/07/14 08:16:56;;;;;;;6.05;5.07;;;;;;;39.19;20.97;99760.03;5071903;28;20632;-60
2022/07/14 08:19:23;;;;;;;6.07;3.67;;;;;;;39.55;19.92;99761.16;5071682;28;20200;-60
2022/07/14 08:21:52;;;;;;;45.55;28.25;;;;;;;40.32;19.68;99758.75;5066747;28;20211;-54
2022/07/14 08:24:19;;;;;;;16.13;8.73;;;;;;;40.74;19.71;99763.16;5068060;28;20678;-55
2022/07/14 08:26:46;;;;;;;21.75;13.77;;;;;;;41.19;19.29;99765.34;5068090;28;20231;-54
2022/07/14 08:29:14;;;;;;;4.13;2.17;;;;;;;40.90;19.17;99754.28;5070238;28;20257;-54
2022/07/14 08:31:41;;;;;;;4.50;1.70;;;;;;;41.06;18.53;99765.53;5070180;28;20675;-53
2022/07/14 08:34:08;;;;;;;1.92;1.67;;;;;;;41.02;18.55;99764.34;5069883;28;20199;-59
2022/07/14 08:36:35;;;;;;;5.88;1.90;;;;;;;41.12;19.03;99759.13;5070105;28;20202;-60
2022/07/14 08:39:05;;;;;;;2.92;1.98;;;;;;;41.00;19.26;99761.88;5070308;28;20671;-62
2022/07/14 08:41:34;;;;;;;3.42;1.80;;;;;;;40.04;19.46;99760.16;5071342;28;20231;-60
2022/07/14 08:44:02;;;;;;;1.70;1.60;;;;;;;39.07;20.11;99750.13;5071109;28;20202;-60
2022/07/14 08:46:29;;;;;;;3.83;1.35;;;;;;;37.79;20.70;99741.31;5070893;28;20383;-61
2022/07/14 08:48:56;;;;;;;3.58;1.35;;;;;;;37.50;21.50;99750.75;5071240;28;20227;-59
2022/07/14 08:51:25;;;;;;;3.90;1.55;;;;;;;37.75;21.61;99745.50;5071025;28;20213;-60
2022/07/14 08:53:52;;;;;;;1.98;1.73;;;;;;;37.48;21.49;99730.34;5071155;28;20664;-59
2022/07/14 08:56:21;;;;;;;1.55;1.45;;;;;;;37.42;21.48;99741.00;5071032;28;20735;-60
2022/07/14 08:58:49;;;;;;;1.92;1.38;;;;;;;37.15;21.45;99731.22;5070942;28;20199;-60
2022/07/14 09:01:16;;;;;;;3.08;1.40;;;;;;;37.28;21.83;99733.94;5071161;28;20642;-59
2022/07/14 09:03:43;;;;;;;3.20;1.65;;;;;;;37.13;21.21;99733.34;5070777;28;20209;-60
2022/07/14 09:06:10;;;;;;;2.33;1.45;;;;;;;37.04;20.71;99729.16;5070229;28;20198;-59
2022/07/14 09:08:55;;;;;;;5.90;1.35;;;;;;;36.94;21.28;99734.16;5069250;28;20228;-60
2022/07/14 09:11:24;;;;;;;1.63;1.25;;;;;;;37.02;20.83;99725.84;5069011;28;20192;-60
2022/07/14 09:13:51;;;;;;;2.88;1.30;;;;;;;36.71;20.78;99730.00;5069688;28;20655;-60
2022/07/14 09:16:20;;;;;;;3.58;1.50;;;;;;;36.44;21.10;99728.31;5070464;28;20196;-60
2022/07/14 09:19:03;;;;;;;3.70;1.40;;;;;;;36.28;21.73;99720.59;5070718;28;20206;-61
2022/07/14 09:21:30;;;;;;;1.63;1.52;;;;;;;36.24;21.42;99716.59;5070335;28;20200;-60
2022/07/14 09:23:58;;;;;;;4.65;1.65;;;;;;;35.93;21.54;99722.53;5070776;28;20386;-60
2022/07/14 09:26:27;;;;;;;2.40;1.40;;;;;;;35.82;21.41;99715.00;5069498;28;20195;-60
2022/07/14 09:28:55;;;;;;;2.33;1.40;;;;;;;36.22;21.25;99708.72;5069994;28;20677;-54
2022/07/14 09:31:25;;;;;;;4.15;1.48;;;;;;;36.21;22.05;99711.59;5070204;28;20676;-54
2022/07/14 09:33:53;;;;;;;2.53;1.48;;;;;;;35.93;21.48;99706.31;5070019;28;20191;-60
2022/07/14 09:36:23;;;;;;;2.22;1.50;;;;;;;36.16;21.53;99703.25;5070276;28;20283;-60
2022/07/14 09:38:51;;;;;;;2.85;1.45;;;;;;;36.30;21.49;99699.59;5070316;28;20243;-60
2022/07/14 09:41:18;;;;;;;3.20;1.42;;;;;;;36.51;21.14;99698.56;5070571;28;20591;-60
2022/07/14 09:44:07;;;;;;;3.45;1.60;;;;;;;36.24;21.20;99701.22;5070291;28;20668;-54
2022/07/14 09:46:45;;;;;;;1.98;1.75;;;;;;;35.90;21.31;99695.91;5069990;28;20196;-55
2022/07/14 09:49:13;;;;;;;1.98;1.52;;;;;;;35.66;21.83;99694.59;5069741;28;20230;-55
2022/07/14 09:51:54;;;;;;;2.47;1.90;;;;;;;35.52;21.85;99665.84;5070112;28;20269;-55
2022/07/14 09:54:40;;;;;;;2.05;1.50;;;;;;;35.56;22.10;99683.28;5069979;28;20198;-55
2022/07/14 09:57:07;;;;;;;4.20;1.63;;;;;;;35.75;21.99;99688.00;5068805;28;20706;-55
2022/07/14 09:59:44;;;;;;;1.73;1.60;;;;;;;35.53;21.96;99678.31;5069155;28;20200;-53
2022/07/14 10:02:18;;;;;;;3.00;1.30;;;;;;;35.63;21.88;99678.78;5066348;28;20196;-54
2022/07/14 10:04:45;;;;;;;2.20;1.52;;;;;;;35.57;21.73;99666.91;5067520;28;20630;-55
2022/07/14 10:07:13;;;;;;;2.58;1.70;;;;;;;35.55;22.08;99660.88;5068709;28;20195;-59
2022/07/14 10:09:44;;;;;;;1.52;1.42;;;;;;;35.41;22.33;99671.81;5069379;28;20196;-59
2022/07/14 10:12:11;;;;;;;1.52;1.42;;;;;;;35.53;21.81;99668.34;5068994;28;20724;-60
2022/07/14 10:14:39;;;;;;;1.52;1.42;;;;;;;35.35;22.36;99656.41;5069078;28;20206;-60
2022/07/14 10:17:08;;;;;;;2.13;1.60;;;;;;;35.17;22.49;99648.81;5069289;28;20212;-60
2022/07/14 10:19:36;;;;;;;2.75;1.70;;;;;;;35.17;22.68;99651.53;5067071;28;20594;-60
2022/07/14 10:22:04;;;;;;;3.72;1.83;;;;;;;35.04;22.95;99648.75;5068849;28;20281;-60
2022/07/14 10:24:32;;;;;;;3.47;1.60;;;;;;;34.28;23.14;99642.34;5068814;28;20187;-60
2022/07/14 10:27:00;;;;;;;1.83;1.52;;;;;;;34.05;23.28;99647.91;5069332;28;20587;-59
2022/07/14 10:29:28;;;;;;;3.92;1.48;;;;;;;33.99;23.70;99643.28;5069024;28;20753;-59
2022/07/14 10:32:14;;;;;;;1.70;1.60;;;;;;;33.90;23.98;99637.19;5066392;28;20207;-54
2022/07/14 10:34:47;;;;;;;2.22;1.60;;;;;;;33.17;24.76;99651.56;5066580;28;20198;-54
2022/07/14 10:37:23;;;;;;;1.80;1.70;;;;;;;33.18;24.98;99643.28;5069284;28;20225;-53
2022/07/14 10:40:02;;;;;;;3.30;1.50;;;;;;;33.25;24.17;99634.53;5068933;28;20286;-52
2022/07/14 10:42:41;;;;;;;4.53;1.90;;;;;;;33.27;25.24;99625.25;5068771;28;20248;-52
2022/07/14 10:45:08;;;;;;;1.67;1.58;;;;;;;33.50;24.53;99627.81;5068919;28;20660;-53
2022/07/14 10:47:52;;;;;;;1.83;1.73;;;;;;;33.44;24.48;99625.84;5066230;28;20211;-53
2022/07/14 10:50:21;;;;;;;1.60;1.50;;;;;;;33.53;24.73;99627.41;5066820;28;20647;-52
2022/07/14 10:53:02;;;;;;;2.40;1.60;;;;;;;33.56;25.02;99621.66;5068735;28;20257;-53
2022/07/14 10:55:40;;;;;;;1.90;1.80;;;;;;;33.54;25.15;99632.59;5067944;28;20278;-54
2022/07/14 10:58:29;;;;;;;1.70;1.60;;;;;;;33.32;24.66;99624.66;5067895;28;20586;-54
2022/07/14 11:00:58;;;;;;;1.98;1.73;;;;;;;33.15;25.00;99622.16;5065921;28;20291;-54
2022/07/14 11:03:45;;;;;;;3.13;1.70;;;;;;;32.86;25.18;99611.38;5068995;28;20192;-53
2022/07/14 11:06:16;;;;;;;1.63;1.52;;;;;;;32.93;25.58;99620.41;5069112;28;20203;-53
2022/07/14 11:08:45;;;;;;;3.65;1.60;;;;;;;32.53;25.67;99621.63;5069038;28;20239;-53
2022/07/14 11:11:23;;;;;;;3.60;1.65;;;;;;;32.11;26.54;99608.69;5068921;28;20192;-53
2022/07/14 11:14:09;;;;;;;2.95;1.65;;;;;;;32.19;26.34;99607.81;5069064;28;20204;-53
2022/07/14 11:17:00;;;;;;;3.78;1.50;;;;;;;32.25;26.20;99612.47;5068948;28;20196;-53
2022/07/14 11:19:38;;;;;;;1.88;1.70;;;;;;;32.38;26.33;99612.72;5069266;28;20721;-54
2022/07/14 11:22:18;;;;;;;4.85;1.98;;;;;;;32.33;26.13;99607.88;5068969;28;20207;-54
2022/07/14 11:24:46;;;;;;;1.60;1.50;;;;;;;32.30;25.98;99607.38;5068810;28;20210;-54
2022/07/14 11:27:35;;;;;;;2.30;2.10;;;;;;;32.29;26.18;99593.13;5068816;28;20196;-54
2022/07/14 11:30:21;;;;;;;1.73;1.70;;;;;;;32.29;26.22;99582.38;5069003;28;20203;-54
2022/07/14 11:33:01;;;;;;;3.65;1.67;;;;;;;32.46;26.62;99600.03;5068905;28;20210;-53
2022/07/14 11:38:29;;;;;;;1.30;1.30;;;;;;;32.53;26.37;99593.91;5069036;28;20261;-53
2022/07/14 11:40:57;;;;;;;3.20;1.38;;;;;;;32.40;26.57;99594.53;5068995;28;20287;-54
2022/07/14 11:43:51;;;;;;;1.95;1.48;;;;;;;32.31;26.18;99591.09;5068868;28;20199;-53
2022/07/14 11:46:21;;;;;;;5.43;1.70;;;;;;;32.31;26.34;99593.78;5068707;28;20211;-54
2022/07/14 11:48:50;;;;;;;2.15;1.45;;;;;;;32.44;26.19;99582.41;5072340;28;20650;-54
2022/07/14 11:51:23;;;;;;;2.10;1.52;;;;;;;32.53;26.26;99578.63;5072155;28;20239;-55
2022/07/14 11:53:56;;;;;;;2.33;1.48;;;;;;;32.62;26.17;99574.81;5072260;28;20698;-52